Plum, Texas
Current Conditions -  °F | °C
As of 7:35 AM on Saturday 25 Oct 2014 (Local Time) from K3T5 Reporting Station
Clear Clear  
Wind Chill: 14°   Ceiling: Unl
Heat Index: 14°   Visibility: 10mi
Dew Point: 14°   Wind: 0mph
Humidity: 95%   Direction: NA
Pressure: 30.14"   Gusts: NA
Location:  29.93°N, 96.97°W
Report Text: K3T5 251235Z AUTO 00000KT 10SM CLR 14/14 A3014 RMK AO2 T01440136
Loading
Personal Weather Stations






























Interactive Weather Map
Tropical Storm Tracking
New forecast layout! Learn more

10-Day Weather Forecast

Advertisements
Track Severe Weather on mobile